sensor_id;sensor_type;location;lat;lon;timestamp;P1;durP1;ratioP1;P2;durP2;ratioP2
6149;SDS011;3106;42.670;23.318;2023-11-18T00:00:01;1.20;;;1.13;;
6149;SDS011;3106;42.670;23.318;2023-11-18T00:02:36;2.30;;;1.30;;
6149;SDS011;3106;42.670;23.318;2023-11-18T00:05:03;1.30;;;1.17;;
6149;SDS011;3106;42.670;23.318;2023-11-18T00:07:32;1.30;;;1.20;;
6149;SDS011;3106;42.670;23.318;2023-11-18T00:09:59;1.10;;;1.10;;
6149;SDS011;3106;42.670;23.318;2023-11-18T00:12:28;1.10;;;1.00;;
6149;SDS011;3106;42.670;23.318;2023-11-18T00:14:55;1.77;;;1.43;;
6149;SDS011;3106;42.670;23.318;2023-11-18T00:17:22;3.90;;;2.77;;
6149;SDS011;3106;42.670;23.318;2023-11-18T00:19:49;4.40;;;2.43;;
6149;SDS011;3106;42.670;23.318;2023-11-18T00:22:16;3.63;;;1.47;;
6149;SDS011;3106;42.670;23.318;2023-11-18T00:24:43;1.30;;;1.20;;
6149;SDS011;3106;42.670;23.318;2023-11-18T00:27:10;1.20;;;1.10;;
6149;SDS011;3106;42.670;23.318;2023-11-18T00:29:41;1.00;;;1.00;;
6149;SDS011;3106;42.670;23.318;2023-11-18T00:32:09;1.30;;;1.20;;
6149;SDS011;3106;42.670;23.318;2023-11-18T00:34:36;1.30;;;1.17;;
6149;SDS011;3106;42.670;23.318;2023-11-18T00:37:03;1.60;;;1.50;;
6149;SDS011;3106;42.670;23.318;2023-11-18T00:39:30;1.40;;;1.30;;
6149;SDS011;3106;42.670;23.318;2023-11-18T00:41:57;1.30;;;1.20;;
6149;SDS011;3106;42.670;23.318;2023-11-18T00:44:24;2.07;;;1.30;;
6149;SDS011;3106;42.670;23.318;2023-11-18T00:46:53;1.20;;;1.20;;
6149;SDS011;3106;42.670;23.318;2023-11-18T00:49:22;1.30;;;1.20;;
6149;SDS011;3106;42.670;23.318;2023-11-18T00:51:51;1.77;;;1.40;;
6149;SDS011;3106;42.670;23.318;2023-11-18T00:54:18;1.40;;;1.30;;
6149;SDS011;3106;42.670;23.318;2023-11-18T00:56:45;1.40;;;1.30;;
6149;SDS011;3106;42.670;23.318;2023-11-18T00:59:12;1.60;;;1.50;;
6149;SDS011;3106;42.670;23.318;2023-11-18T01:01:39;1.40;;;1.33;;
6149;SDS011;3106;42.670;23.318;2023-11-18T01:04:07;1.50;;;1.40;;
6149;SDS011;3106;42.670;23.318;2023-11-18T01:06:34;1.60;;;1.50;;
6149;SDS011;3106;42.670;23.318;2023-11-18T01:09:01;2.30;;;1.70;;
6149;SDS011;3106;42.670;23.318;2023-11-18T01:11:28;1.70;;;1.60;;
6149;SDS011;3106;42.670;23.318;2023-11-18T01:13:55;1.70;;;1.60;;
6149;SDS011;3106;42.670;23.318;2023-11-18T01:16:22;1.83;;;1.60;;
6149;SDS011;3106;42.670;23.318;2023-11-18T01:18:50;2.03;;;1.83;;
6149;SDS011;3106;42.670;23.318;2023-11-18T01:21:19;1.80;;;1.70;;
6149;SDS011;3106;42.670;23.318;2023-11-18T01:23:46;2.10;;;1.90;;
6149;SDS011;3106;42.670;23.318;2023-11-18T01:26:14;2.10;;;1.60;;
6149;SDS011;3106;42.670;23.318;2023-11-18T01:28:41;2.50;;;2.10;;
6149;SDS011;3106;42.670;23.318;2023-11-18T01:31:10;2.27;;;2.07;;
6149;SDS011;3106;42.670;23.318;2023-11-18T01:33:36;3.43;;;2.20;;
6149;SDS011;3106;42.670;23.318;2023-11-18T01:36:05;2.57;;;2.07;;
6149;SDS011;3106;42.670;23.318;2023-11-18T01:38:44;1.63;;;1.50;;
6149;SDS011;3106;42.670;23.318;2023-11-18T01:41:16;2.20;;;2.00;;
6149;SDS011;3106;42.670;23.318;2023-11-18T01:43:45;2.20;;;1.70;;
6149;SDS011;3106;42.670;23.318;2023-11-18T01:46:13;3.20;;;2.10;;
6149;SDS011;3106;42.670;23.318;2023-11-18T01:48:44;1.80;;;1.70;;
6149;SDS011;3106;42.670;23.318;2023-11-18T01:51:12;2.90;;;2.27;;
6149;SDS011;3106;42.670;23.318;2023-11-18T01:53:51;3.30;;;2.40;;
6149;SDS011;3106;42.670;23.318;2023-11-18T01:56:22;2.47;;;2.27;;
6149;SDS011;3106;42.670;23.318;2023-11-18T01:58:50;2.07;;;1.87;;
6149;SDS011;3106;42.670;23.318;2023-11-18T02:01:19;2.53;;;2.30;;
6149;SDS011;3106;42.670;23.318;2023-11-18T02:03:48;2.60;;;2.40;;
6149;SDS011;3106;42.670;23.318;2023-11-18T02:06:17;2.20;;;2.00;;
6149;SDS011;3106;42.670;23.318;2023-11-18T02:08:48;2.30;;;2.10;;
6149;SDS011;3106;42.670;23.318;2023-11-18T02:11:20;2.40;;;1.97;;
6149;SDS011;3106;42.670;23.318;2023-11-18T02:14:00;4.50;;;2.90;;
6149;SDS011;3106;42.670;23.318;2023-11-18T02:16:50;2.10;;;1.90;;
6149;SDS011;3106;42.670;23.318;2023-11-18T02:19:53;2.70;;;2.30;;
6149;SDS011;3106;42.670;23.318;2023-11-18T02:23:07;3.30;;;2.40;;
6149;SDS011;3106;42.670;23.318;2023-11-18T02:25:44;2.60;;;2.40;;
6149;SDS011;3106;42.670;23.318;2023-11-18T02:28:12;3.03;;;2.37;;
6149;SDS011;3106;42.670;23.318;2023-11-18T02:31:02;3.63;;;2.40;;
6149;SDS011;3106;42.670;23.318;2023-11-18T02:33:43;3.77;;;2.70;;
6149;SDS011;3106;42.670;23.318;2023-11-18T02:36:20;2.70;;;2.50;;
6149;SDS011;3106;42.670;23.318;2023-11-18T02:39:01;3.20;;;2.80;;
6149;SDS011;3106;42.670;23.318;2023-11-18T02:41:40;3.27;;;2.70;;
6149;SDS011;3106;42.670;23.318;2023-11-18T02:44:15;3.43;;;2.30;;
6149;SDS011;3106;42.670;23.318;2023-11-18T02:46:48;2.73;;;2.50;;
6149;SDS011;3106;42.670;23.318;2023-11-18T02:49:17;4.13;;;2.60;;
6149;SDS011;3106;42.670;23.318;2023-11-18T02:51:49;4.57;;;3.50;;
6149;SDS011;3106;42.670;23.318;2023-11-18T02:54:18;3.30;;;2.73;;
6149;SDS011;3106;42.670;23.318;2023-11-18T02:56:51;4.40;;;2.80;;
6149;SDS011;3106;42.670;23.318;2023-11-18T02:59:18;2.80;;;2.27;;
6149;SDS011;3106;42.670;23.318;2023-11-18T03:01:45;7.20;;;3.33;;
6149;SDS011;3106;42.670;23.318;2023-11-18T03:04:12;4.60;;;3.43;;
6149;SDS011;3106;42.670;23.318;2023-11-18T03:06:40;8.40;;;3.57;;
6149;SDS011;3106;42.670;23.318;2023-11-18T03:09:07;3.63;;;3.10;;
6149;SDS011;3106;42.670;23.318;2023-11-18T03:11:36;4.93;;;3.73;;
6149;SDS011;3106;42.670;23.318;2023-11-18T03:14:05;4.73;;;3.50;;
6149;SDS011;3106;42.670;23.318;2023-11-18T03:16:36;4.10;;;3.60;;
6149;SDS011;3106;42.670;23.318;2023-11-18T03:19:03;4.10;;;3.50;;
6149;SDS011;3106;42.670;23.318;2023-11-18T03:21:30;5.23;;;3.80;;
6149;SDS011;3106;42.670;23.318;2023-11-18T03:23:57;6.10;;;4.53;;
6149;SDS011;3106;42.670;23.318;2023-11-18T03:26:24;6.10;;;4.13;;
6149;SDS011;3106;42.670;23.318;2023-11-18T03:28:52;5.30;;;3.80;;
6149;SDS011;3106;42.670;23.318;2023-11-18T03:31:20;5.20;;;4.07;;
6149;SDS011;3106;42.670;23.318;2023-11-18T03:33:47;4.50;;;3.70;;
6149;SDS011;3106;42.670;23.318;2023-11-18T03:36:14;4.33;;;3.10;;
6149;SDS011;3106;42.670;23.318;2023-11-18T03:38:43;3.63;;;2.83;;
6149;SDS011;3106;42.670;23.318;2023-11-18T03:41:10;7.43;;;3.60;;
6149;SDS011;3106;42.670;23.318;2023-11-18T03:43:38;5.83;;;3.07;;
6149;SDS011;3106;42.670;23.318;2023-11-18T03:46:05;4.30;;;3.60;;
6149;SDS011;3106;42.670;23.318;2023-11-18T03:48:34;3.70;;;3.30;;
6149;SDS011;3106;42.670;23.318;2023-11-18T03:51:01;4.80;;;3.70;;
6149;SDS011;3106;42.670;23.318;2023-11-18T03:53:28;4.23;;;3.43;;
6149;SDS011;3106;42.670;23.318;2023-11-18T03:55:56;8.10;;;3.70;;
6149;SDS011;3106;42.670;23.318;2023-11-18T03:58:22;3.77;;;2.77;;
6149;SDS011;3106;42.670;23.318;2023-11-18T04:00:49;3.87;;;3.30;;
6149;SDS011;3106;42.670;23.318;2023-11-18T04:03:18;5.53;;;3.37;;
6149;SDS011;3106;42.670;23.318;2023-11-18T04:05:47;2.90;;;2.33;;
6149;SDS011;3106;42.670;23.318;2023-11-18T04:08:14;5.13;;;4.20;;
6149;SDS011;3106;42.670;23.318;2023-11-18T04:10:41;4.90;;;3.90;;
6149;SDS011;3106;42.670;23.318;2023-11-18T04:13:08;5.80;;;3.93;;
6149;SDS011;3106;42.670;23.318;2023-11-18T04:15:35;4.97;;;3.70;;
6149;SDS011;3106;42.670;23.318;2023-11-18T04:18:02;4.27;;;3.67;;
6149;SDS011;3106;42.670;23.318;2023-11-18T04:20:31;7.77;;;3.77;;
6149;SDS011;3106;42.670;23.318;2023-11-18T04:22:59;5.30;;;4.13;;
6149;SDS011;3106;42.670;23.318;2023-11-18T04:25:26;7.90;;;4.10;;
6149;SDS011;3106;42.670;23.318;2023-11-18T04:27:53;5.10;;;3.33;;
6149;SDS011;3106;42.670;23.318;2023-11-18T04:30:20;12.83;;;4.10;;
6149;SDS011;3106;42.670;23.318;2023-11-18T04:32:47;4.63;;;3.20;;
6149;SDS011;3106;42.670;23.318;2023-11-18T04:35:17;5.00;;;3.10;;
6149;SDS011;3106;42.670;23.318;2023-11-18T04:37:47;5.20;;;3.63;;
6149;SDS011;3106;42.670;23.318;2023-11-18T04:40:15;6.30;;;4.23;;
6149;SDS011;3106;42.670;23.318;2023-11-18T04:42:42;7.50;;;3.80;;
6149;SDS011;3106;42.670;23.318;2023-11-18T04:45:10;5.20;;;3.83;;
6149;SDS011;3106;42.670;23.318;2023-11-18T04:47:37;4.50;;;3.23;;
6149;SDS011;3106;42.670;23.318;2023-11-18T04:50:04;4.97;;;3.73;;
6149;SDS011;3106;42.670;23.318;2023-11-18T04:52:34;4.73;;;3.80;;
6149;SDS011;3106;42.670;23.318;2023-11-18T04:55:02;6.47;;;3.40;;
6149;SDS011;3106;42.670;23.318;2023-11-18T04:57:32;4.47;;;3.20;;
6149;SDS011;3106;42.670;23.318;2023-11-18T04:59:59;2.67;;;2.43;;
6149;SDS011;3106;42.670;23.318;2023-11-18T05:02:35;3.37;;;2.80;;
6149;SDS011;3106;42.670;23.318;2023-11-18T05:05:02;6.73;;;3.00;;
6149;SDS011;3106;42.670;23.318;2023-11-18T05:07:31;4.80;;;3.13;;
6149;SDS011;3106;42.670;23.318;2023-11-18T05:09:59;3.07;;;2.77;;
6149;SDS011;3106;42.670;23.318;2023-11-18T05:12:27;4.33;;;2.93;;
6149;SDS011;3106;42.670;23.318;2023-11-18T05:14:56;3.90;;;3.27;;
6149;SDS011;3106;42.670;23.318;2023-11-18T05:17:23;4.23;;;3.13;;
6149;SDS011;3106;42.670;23.318;2023-11-18T05:19:51;5.33;;;3.10;;
6149;SDS011;3106;42.670;23.318;2023-11-18T05:22:18;4.60;;;3.17;;
6149;SDS011;3106;42.670;23.318;2023-11-18T05:24:45;3.23;;;2.70;;
6149;SDS011;3106;42.670;23.318;2023-11-18T05:27:13;3.00;;;2.50;;
6149;SDS011;3106;42.670;23.318;2023-11-18T05:29:40;3.33;;;2.80;;
6149;SDS011;3106;42.670;23.318;2023-11-18T05:32:08;4.77;;;3.27;;
6149;SDS011;3106;42.670;23.318;2023-11-18T05:34:35;5.17;;;2.60;;
6149;SDS011;3106;42.670;23.318;2023-11-18T05:37:03;2.70;;;2.30;;
6149;SDS011;3106;42.670;23.318;2023-11-18T05:39:30;2.33;;;2.03;;
6149;SDS011;3106;42.670;23.318;2023-11-18T05:41:58;2.33;;;2.13;;
6149;SDS011;3106;42.670;23.318;2023-11-18T05:44:25;3.87;;;1.87;;
6149;SDS011;3106;42.670;23.318;2023-11-18T05:46:56;2.33;;;2.13;;
6149;SDS011;3106;42.670;23.318;2023-11-18T05:49:24;2.47;;;2.07;;
6149;SDS011;3106;42.670;23.318;2023-11-18T05:51:51;1.90;;;1.80;;
6149;SDS011;3106;42.670;23.318;2023-11-18T05:54:18;2.57;;;1.97;;
6149;SDS011;3106;42.670;23.318;2023-11-18T05:56:45;2.00;;;1.90;;
6149;SDS011;3106;42.670;23.318;2023-11-18T05:59:12;2.10;;;1.73;;
6149;SDS011;3106;42.670;23.318;2023-11-18T06:01:39;2.07;;;1.87;;
6149;SDS011;3106;42.670;23.318;2023-11-18T06:04:06;2.53;;;2.20;;
6149;SDS011;3106;42.670;23.318;2023-11-18T06:06:36;4.37;;;1.90;;
6149;SDS011;3106;42.670;23.318;2023-11-18T06:09:03;1.80;;;1.70;;
6149;SDS011;3106;42.670;23.318;2023-11-18T06:11:34;2.30;;;1.80;;
6149;SDS011;3106;42.670;23.318;2023-11-18T06:14:06;2.50;;;1.97;;
6149;SDS011;3106;42.670;23.318;2023-11-18T06:16:34;2.40;;;1.90;;
6149;SDS011;3106;42.670;23.318;2023-11-18T06:19:02;1.57;;;1.47;;
6149;SDS011;3106;42.670;23.318;2023-11-18T06:21:30;1.63;;;1.53;;
6149;SDS011;3106;42.670;23.318;2023-11-18T06:23:59;1.73;;;1.30;;
6149;SDS011;3106;42.670;23.318;2023-11-18T06:26:29;2.20;;;1.63;;
6149;SDS011;3106;42.670;23.318;2023-11-18T06:28:56;1.57;;;1.47;;
6149;SDS011;3106;42.670;23.318;2023-11-18T06:31:24;1.70;;;1.60;;
6149;SDS011;3106;42.670;23.318;2023-11-18T06:33:51;1.60;;;1.40;;
6149;SDS011;3106;42.670;23.318;2023-11-18T06:36:18;1.67;;;1.57;;
6149;SDS011;3106;42.670;23.318;2023-11-18T06:38:46;2.87;;;1.30;;
6149;SDS011;3106;42.670;23.318;2023-11-18T06:41:16;2.30;;;1.53;;
6149;SDS011;3106;42.670;23.318;2023-11-18T06:43:44;1.60;;;1.30;;
6149;SDS011;3106;42.670;23.318;2023-11-18T06:46:22;1.73;;;1.60;;
6149;SDS011;3106;42.670;23.318;2023-11-18T06:48:50;2.50;;;1.47;;
6149;SDS011;3106;42.670;23.318;2023-11-18T06:51:19;4.30;;;1.70;;
6149;SDS011;3106;42.670;23.318;2023-11-18T06:53:48;2.83;;;1.90;;
6149;SDS011;3106;42.670;23.318;2023-11-18T06:56:17;1.97;;;1.20;;
6149;SDS011;3106;42.670;23.318;2023-11-18T06:58:44;2.20;;;1.33;;
6149;SDS011;3106;42.670;23.318;2023-11-18T07:01:12;1.50;;;1.40;;
6149;SDS011;3106;42.670;23.318;2023-11-18T07:03:40;1.20;;;1.07;;
6149;SDS011;3106;42.670;23.318;2023-11-18T07:06:08;1.30;;;1.20;;
6149;SDS011;3106;42.670;23.318;2023-11-18T07:08:35;1.00;;;1.00;;
6149;SDS011;3106;42.670;23.318;2023-11-18T07:11:02;1.30;;;1.20;;
6149;SDS011;3106;42.670;23.318;2023-11-18T07:13:32;1.23;;;1.13;;
6149;SDS011;3106;42.670;23.318;2023-11-18T07:16:04;1.50;;;1.30;;
6149;SDS011;3106;42.670;23.318;2023-11-18T07:18:34;7.20;;;1.57;;
6149;SDS011;3106;42.670;23.318;2023-11-18T07:21:02;2.20;;;1.87;;
6149;SDS011;3106;42.670;23.318;2023-11-18T07:23:30;1.70;;;1.60;;
6149;SDS011;3106;42.670;23.318;2023-11-18T07:25:57;1.80;;;1.60;;
6149;SDS011;3106;42.670;23.318;2023-11-18T07:28:24;1.30;;;1.20;;
6149;SDS011;3106;42.670;23.318;2023-11-18T07:30:53;1.40;;;1.10;;
6149;SDS011;3106;42.670;23.318;2023-11-18T07:33:20;1.30;;;1.00;;
6149;SDS011;3106;42.670;23.318;2023-11-18T07:35:48;1.47;;;1.30;;
6149;SDS011;3106;42.670;23.318;2023-11-18T07:38:15;1.33;;;1.23;;
6149;SDS011;3106;42.670;23.318;2023-11-18T07:40:43;1.73;;;1.50;;
6149;SDS011;3106;42.670;23.318;2023-11-18T07:43:11;1.20;;;1.10;;
6149;SDS011;3106;42.670;23.318;2023-11-18T07:45:38;1.60;;;1.37;;
6149;SDS011;3106;42.670;23.318;2023-11-18T07:48:07;2.37;;;1.57;;
6149;SDS011;3106;42.670;23.318;2023-11-18T07:50:34;2.90;;;1.50;;
6149;SDS011;3106;42.670;23.318;2023-11-18T07:53:01;2.27;;;1.50;;
6149;SDS011;3106;42.670;23.318;2023-11-18T07:55:28;1.50;;;1.40;;
6149;SDS011;3106;42.670;23.318;2023-11-18T07:57:57;4.40;;;1.63;;
6149;SDS011;3106;42.670;23.318;2023-11-18T08:00:24;1.50;;;1.40;;
6149;SDS011;3106;42.670;23.318;2023-11-18T08:02:50;4.63;;;1.60;;
6149;SDS011;3106;42.670;23.318;2023-11-18T08:05:20;1.53;;;1.43;;
6149;SDS011;3106;42.670;23.318;2023-11-18T08:07:49;3.93;;;1.30;;
6149;SDS011;3106;42.670;23.318;2023-11-18T08:10:16;1.90;;;1.40;;
6149;SDS011;3106;42.670;23.318;2023-11-18T08:12:47;1.33;;;1.23;;
6149;SDS011;3106;42.670;23.318;2023-11-18T08:15:23;2.10;;;1.90;;
6149;SDS011;3106;42.670;23.318;2023-11-18T08:17:54;2.10;;;1.80;;
6149;SDS011;3106;42.670;23.318;2023-11-18T08:20:23;1.43;;;1.33;;
6149;SDS011;3106;42.670;23.318;2023-11-18T08:22:52;1.40;;;1.30;;
6149;SDS011;3106;42.670;23.318;2023-11-18T08:25:20;9.80;;;1.77;;
6149;SDS011;3106;42.670;23.318;2023-11-18T08:27:53;1.80;;;1.30;;
6149;SDS011;3106;42.670;23.318;2023-11-18T08:30:21;1.20;;;1.10;;
6149;SDS011;3106;42.670;23.318;2023-11-18T08:32:49;1.40;;;1.23;;
6149;SDS011;3106;42.670;23.318;2023-11-18T08:35:16;1.70;;;1.60;;
6149;SDS011;3106;42.670;23.318;2023-11-18T08:37:44;1.53;;;1.27;;
6149;SDS011;3106;42.670;23.318;2023-11-18T08:40:12;1.70;;;1.60;;
6149;SDS011;3106;42.670;23.318;2023-11-18T08:42:42;1.63;;;1.40;;
6149;SDS011;3106;42.670;23.318;2023-11-18T08:45:13;1.03;;;1.03;;
6149;SDS011;3106;42.670;23.318;2023-11-18T08:47:43;1.47;;;1.37;;
6149;SDS011;3106;42.670;23.318;2023-11-18T08:50:12;2.00;;;1.63;;
6149;SDS011;3106;42.670;23.318;2023-11-18T08:52:39;2.40;;;1.30;;
6149;SDS011;3106;42.670;23.318;2023-11-18T08:55:17;2.87;;;1.30;;
6149;SDS011;3106;42.670;23.318;2023-11-18T08:58:08;2.50;;;1.90;;
6149;SDS011;3106;42.670;23.318;2023-11-18T09:00:44;1.37;;;1.27;;
6149;SDS011;3106;42.670;23.318;2023-11-18T09:03:19;2.50;;;1.63;;
6149;SDS011;3106;42.670;23.318;2023-11-18T09:06:01;2.53;;;1.73;;
6149;SDS011;3106;42.670;23.318;2023-11-18T09:08:30;1.80;;;1.70;;
6149;SDS011;3106;42.670;23.318;2023-11-18T09:11:01;1.53;;;1.30;;
6149;SDS011;3106;42.670;23.318;2023-11-18T09:13:30;2.33;;;1.73;;
6149;SDS011;3106;42.670;23.318;2023-11-18T09:16:00;1.80;;;1.50;;
6149;SDS011;3106;42.670;23.318;2023-11-18T09:18:29;2.00;;;1.80;;
6149;SDS011;3106;42.670;23.318;2023-11-18T09:20:58;1.60;;;1.37;;
6149;SDS011;3106;42.670;23.318;2023-11-18T09:23:26;2.47;;;1.60;;
6149;SDS011;3106;42.670;23.318;2023-11-18T09:25:54;3.13;;;2.17;;
6149;SDS011;3106;42.670;23.318;2023-11-18T09:28:22;4.53;;;1.80;;
6149;SDS011;3106;42.670;23.318;2023-11-18T09:30:50;1.30;;;1.20;;
6149;SDS011;3106;42.670;23.318;2023-11-18T09:33:22;2.07;;;1.60;;
6149;SDS011;3106;42.670;23.318;2023-11-18T09:35:58;1.37;;;1.27;;
6149;SDS011;3106;42.670;23.318;2023-11-18T09:38:26;10.03;;;2.00;;
6149;SDS011;3106;42.670;23.318;2023-11-18T09:40:58;2.13;;;1.73;;
6149;SDS011;3106;42.670;23.318;2023-11-18T09:43:30;2.37;;;1.90;;
6149;SDS011;3106;42.670;23.318;2023-11-18T09:46:04;1.30;;;1.20;;
6149;SDS011;3106;42.670;23.318;2023-11-18T09:48:38;4.57;;;2.30;;
6149;SDS011;3106;42.670;23.318;2023-11-18T09:51:10;2.20;;;1.97;;
6149;SDS011;3106;42.670;23.318;2023-11-18T09:53:43;4.73;;;2.77;;
6149;SDS011;3106;42.670;23.318;2023-11-18T09:56:14;2.00;;;1.60;;
6149;SDS011;3106;42.670;23.318;2023-11-18T09:58:57;5.90;;;2.30;;
6149;SDS011;3106;42.670;23.318;2023-11-18T10:01:33;3.67;;;2.10;;
6149;SDS011;3106;42.670;23.318;2023-11-18T10:04:04;1.80;;;1.60;;
6149;SDS011;3106;42.670;23.318;2023-11-18T10:06:33;2.00;;;1.47;;
6149;SDS011;3106;42.670;23.318;2023-11-18T10:09:05;7.03;;;2.43;;
6149;SDS011;3106;42.670;23.318;2023-11-18T10:11:43;5.93;;;2.50;;
6149;SDS011;3106;42.670;23.318;2023-11-18T10:14:13;1.73;;;1.63;;
6149;SDS011;3106;42.670;23.318;2023-11-18T10:16:42;5.07;;;1.73;;
6149;SDS011;3106;42.670;23.318;2023-11-18T10:19:12;5.37;;;2.83;;
6149;SDS011;3106;42.670;23.318;2023-11-18T10:21:39;4.60;;;2.90;;
6149;SDS011;3106;42.670;23.318;2023-11-18T10:24:07;11.07;;;3.20;;
6149;SDS011;3106;42.670;23.318;2023-11-18T10:26:40;3.43;;;2.10;;
6149;SDS011;3106;42.670;23.318;2023-11-18T10:29:10;5.00;;;2.63;;
6149;SDS011;3106;42.670;23.318;2023-11-18T10:31:39;2.27;;;1.90;;
6149;SDS011;3106;42.670;23.318;2023-11-18T10:34:10;1.70;;;1.50;;
6149;SDS011;3106;42.670;23.318;2023-11-18T10:36:41;1.63;;;1.53;;
6149;SDS011;3106;42.670;23.318;2023-11-18T10:39:13;2.07;;;1.70;;
6149;SDS011;3106;42.670;23.318;2023-11-18T10:41:42;1.70;;;1.60;;
6149;SDS011;3106;42.670;23.318;2023-11-18T10:44:13;3.27;;;2.00;;
6149;SDS011;3106;42.670;23.318;2023-11-18T10:46:51;2.10;;;1.90;;
6149;SDS011;3106;42.670;23.318;2023-11-18T10:49:20;2.30;;;1.80;;
6149;SDS011;3106;42.670;23.318;2023-11-18T10:51:47;2.30;;;1.80;;
6149;SDS011;3106;42.670;23.318;2023-11-18T10:54:15;4.60;;;2.20;;
6149;SDS011;3106;42.670;23.318;2023-11-18T10:56:47;2.80;;;1.67;;
6149;SDS011;3106;42.670;23.318;2023-11-18T10:59:15;4.57;;;1.87;;
6149;SDS011;3106;42.670;23.318;2023-11-18T11:01:43;1.93;;;1.73;;
6149;SDS011;3106;42.670;23.318;2023-11-18T11:04:15;3.73;;;1.57;;
6149;SDS011;3106;42.670;23.318;2023-11-18T11:06:46;3.27;;;1.60;;
6149;SDS011;3106;42.670;23.318;2023-11-18T11:09:18;1.57;;;1.20;;
6149;SDS011;3106;42.670;23.318;2023-11-18T11:11:50;1.73;;;1.50;;
6149;SDS011;3106;42.670;23.318;2023-11-18T11:14:20;1.60;;;1.50;;
6149;SDS011;3106;42.670;23.318;2023-11-18T11:16:51;4.83;;;2.77;;
6149;SDS011;3106;42.670;23.318;2023-11-18T11:19:24;3.83;;;2.90;;
6149;SDS011;3106;42.670;23.318;2023-11-18T11:21:55;2.70;;;2.37;;
6149;SDS011;3106;42.670;23.318;2023-11-18T11:24:37;5.57;;;3.40;;
6149;SDS011;3106;42.670;23.318;2023-11-18T11:27:11;3.33;;;2.10;;
6149;SDS011;3106;42.670;23.318;2023-11-18T11:29:54;2.13;;;1.80;;
6149;SDS011;3106;42.670;23.318;2023-11-18T11:32:38;1.53;;;1.43;;
6149;SDS011;3106;42.670;23.318;2023-11-18T11:38:02;2.90;;;1.80;;
6149;SDS011;3106;42.670;23.318;2023-11-18T11:40:35;2.30;;;1.60;;
6149;SDS011;3106;42.670;23.318;2023-11-18T11:43:09;1.00;;;1.00;;
6149;SDS011;3106;42.670;23.318;2023-11-18T11:46:04;4.70;;;2.00;;
6149;SDS011;3106;42.670;23.318;2023-11-18T11:48:35;2.70;;;2.10;;
6149;SDS011;3106;42.670;23.318;2023-11-18T11:51:19;2.23;;;1.80;;
6149;SDS011;3106;42.670;23.318;2023-11-18T11:53:54;6.00;;;1.97;;
6149;SDS011;3106;42.670;23.318;2023-11-18T11:56:39;4.27;;;1.47;;
6149;SDS011;3106;42.670;23.318;2023-11-18T11:59:06;2.27;;;1.70;;
6149;SDS011;3106;42.670;23.318;2023-11-18T12:01:36;2.97;;;1.83;;
6149;SDS011;3106;42.670;23.318;2023-11-18T12:04:07;2.90;;;1.67;;
6149;SDS011;3106;42.670;23.318;2023-11-18T12:06:47;3.40;;;2.20;;
6149;SDS011;3106;42.670;23.318;2023-11-18T12:09:18;2.80;;;2.07;;
6149;SDS011;3106;42.670;23.318;2023-11-18T12:11:46;2.17;;;1.97;;
6149;SDS011;3106;42.670;23.318;2023-11-18T12:14:15;2.00;;;1.90;;
6149;SDS011;3106;42.670;23.318;2023-11-18T12:17:06;4.70;;;2.20;;
6149;SDS011;3106;42.670;23.318;2023-11-18T12:19:35;1.90;;;1.80;;
6149;SDS011;3106;42.670;23.318;2023-11-18T12:22:12;8.33;;;2.50;;
6149;SDS011;3106;42.670;23.318;2023-11-18T12:24:43;2.50;;;2.03;;
6149;SDS011;3106;42.670;23.318;2023-11-18T12:27:12;3.73;;;2.17;;
6149;SDS011;3106;42.670;23.318;2023-11-18T12:29:42;3.63;;;1.83;;
6149;SDS011;3106;42.670;23.318;2023-11-18T12:32:09;4.17;;;2.30;;
6149;SDS011;3106;42.670;23.318;2023-11-18T12:34:50;9.00;;;2.60;;
6149;SDS011;3106;42.670;23.318;2023-11-18T12:40:23;2.90;;;2.00;;
6149;SDS011;3106;42.670;23.318;2023-11-18T12:43:15;2.30;;;1.70;;
6149;SDS011;3106;42.670;23.318;2023-11-18T12:49:03;2.20;;;2.00;;
6149;SDS011;3106;42.670;23.318;2023-11-18T12:51:30;2.20;;;1.60;;
6149;SDS011;3106;42.670;23.318;2023-11-18T12:54:02;2.43;;;1.97;;
6149;SDS011;3106;42.670;23.318;2023-11-18T12:56:32;2.80;;;2.03;;
6149;SDS011;3106;42.670;23.318;2023-11-18T12:58:59;4.30;;;3.00;;
6149;SDS011;3106;42.670;23.318;2023-11-18T13:01:26;2.40;;;1.87;;
6149;SDS011;3106;42.670;23.318;2023-11-18T13:03:53;2.40;;;2.00;;
6149;SDS011;3106;42.670;23.318;2023-11-18T13:06:20;3.20;;;2.10;;
6149;SDS011;3106;42.670;23.318;2023-11-18T13:08:53;5.63;;;2.57;;
6149;SDS011;3106;42.670;23.318;2023-11-18T13:11:23;3.60;;;2.37;;
6149;SDS011;3106;42.670;23.318;2023-11-18T13:13:51;3.20;;;2.03;;
6149;SDS011;3106;42.670;23.318;2023-11-18T13:16:19;2.10;;;1.90;;
6149;SDS011;3106;42.670;23.318;2023-11-18T13:18:48;3.93;;;2.40;;
6149;SDS011;3106;42.670;23.318;2023-11-18T13:21:16;2.63;;;2.10;;
6149;SDS011;3106;42.670;23.318;2023-11-18T13:23:46;1.90;;;1.80;;
6149;SDS011;3106;42.670;23.318;2023-11-18T13:26:15;5.47;;;2.00;;
6149;SDS011;3106;42.670;23.318;2023-11-18T13:28:46;3.03;;;2.27;;
6149;SDS011;3106;42.670;23.318;2023-11-18T13:31:13;2.80;;;2.23;;
6149;SDS011;3106;42.670;23.318;2023-11-18T13:33:41;2.73;;;2.40;;
6149;SDS011;3106;42.670;23.318;2023-11-18T13:36:09;2.87;;;2.50;;
6149;SDS011;3106;42.670;23.318;2023-11-18T13:38:37;3.80;;;2.87;;
6149;SDS011;3106;42.670;23.318;2023-11-18T13:41:04;3.67;;;2.60;;
6149;SDS011;3106;42.670;23.318;2023-11-18T13:43:43;5.97;;;2.57;;
6149;SDS011;3106;42.670;23.318;2023-11-18T13:46:13;5.10;;;3.13;;
6149;SDS011;3106;42.670;23.318;2023-11-18T13:48:40;2.57;;;2.03;;
6149;SDS011;3106;42.670;23.318;2023-11-18T13:51:08;6.57;;;2.70;;
6149;SDS011;3106;42.670;23.318;2023-11-18T13:53:39;4.37;;;2.53;;
6149;SDS011;3106;42.670;23.318;2023-11-18T13:56:08;4.73;;;2.87;;
6149;SDS011;3106;42.670;23.318;2023-11-18T13:58:36;3.50;;;2.93;;
6149;SDS011;3106;42.670;23.318;2023-11-18T14:01:04;8.57;;;3.57;;
6149;SDS011;3106;42.670;23.318;2023-11-18T14:03:34;5.37;;;3.00;;
6149;SDS011;3106;42.670;23.318;2023-11-18T14:06:04;5.33;;;3.43;;
6149;SDS011;3106;42.670;23.318;2023-11-18T14:08:35;18.77;;;7.33;;
6149;SDS011;3106;42.670;23.318;2023-11-18T14:11:02;6.30;;;3.67;;
6149;SDS011;3106;42.670;23.318;2023-11-18T14:13:34;5.20;;;3.60;;
6149;SDS011;3106;42.670;23.318;2023-11-18T14:16:01;3.70;;;2.57;;
6149;SDS011;3106;42.670;23.318;2023-11-18T14:18:29;17.27;;;3.67;;
6149;SDS011;3106;42.670;23.318;2023-11-18T14:20:57;5.17;;;3.43;;
6149;SDS011;3106;42.670;23.318;2023-11-18T14:23:26;3.47;;;3.10;;
6149;SDS011;3106;42.670;23.318;2023-11-18T14:25:53;4.17;;;3.37;;
6149;SDS011;3106;42.670;23.318;2023-11-18T14:28:19;16.17;;;6.97;;
6149;SDS011;3106;42.670;23.318;2023-11-18T14:30:51;8.20;;;3.00;;
6149;SDS011;3106;42.670;23.318;2023-11-18T14:33:18;4.20;;;3.37;;
6149;SDS011;3106;42.670;23.318;2023-11-18T14:35:46;6.47;;;3.10;;
6149;SDS011;3106;42.670;23.318;2023-11-18T14:38:14;4.70;;;3.47;;
6149;SDS011;3106;42.670;23.318;2023-11-18T14:40:45;4.80;;;3.60;;
6149;SDS011;3106;42.670;23.318;2023-11-18T14:43:13;4.30;;;3.00;;
6149;SDS011;3106;42.670;23.318;2023-11-18T14:45:40;4.60;;;3.60;;
6149;SDS011;3106;42.670;23.318;2023-11-18T14:48:09;4.47;;;3.27;;
6149;SDS011;3106;42.670;23.318;2023-11-18T14:50:36;4.77;;;3.60;;
6149;SDS011;3106;42.670;23.318;2023-11-18T14:53:03;4.20;;;3.70;;
6149;SDS011;3106;42.670;23.318;2023-11-18T14:55:32;11.73;;;3.47;;
6149;SDS011;3106;42.670;23.318;2023-11-18T14:57:59;4.17;;;2.80;;
6149;SDS011;3106;42.670;23.318;2023-11-18T15:00:26;6.63;;;3.33;;
6149;SDS011;3106;42.670;23.318;2023-11-18T15:02:57;15.73;;;2.90;;
6149;SDS011;3106;42.670;23.318;2023-11-18T15:05:25;6.50;;;3.77;;
6149;SDS011;3106;42.670;23.318;2023-11-18T15:07:52;4.73;;;3.50;;
6149;SDS011;3106;42.670;23.318;2023-11-18T15:10:20;5.50;;;4.17;;
6149;SDS011;3106;42.670;23.318;2023-11-18T15:12:50;4.13;;;2.40;;
6149;SDS011;3106;42.670;23.318;2023-11-18T15:15:20;4.83;;;3.47;;
6149;SDS011;3106;42.670;23.318;2023-11-18T15:17:47;4.77;;;3.37;;
6149;SDS011;3106;42.670;23.318;2023-11-18T15:20:18;6.57;;;3.93;;
6149;SDS011;3106;42.670;23.318;2023-11-18T15:22:48;14.10;;;5.00;;
6149;SDS011;3106;42.670;23.318;2023-11-18T15:25:15;5.43;;;3.90;;